createdAt,value
2019-05-30T00:00:40.988Z,1.39
2019-05-30T00:05:43.863Z,1.17
2019-05-30T00:10:48.025Z,1.24
2019-05-30T00:15:51.523Z,1.50
2019-05-30T00:20:54.730Z,1.13
2019-05-30T00:25:57.413Z,1.44
2019-05-30T00:31:00.443Z,1.27
2019-05-30T00:36:03.859Z,1.50
2019-05-30T00:41:06.234Z,1.53
2019-05-30T00:46:07.912Z,1.12
2019-05-30T00:51:10.317Z,1.16
2019-05-30T00:56:13.901Z,1.14
2019-05-30T01:01:17.766Z,1.31
2019-05-30T01:06:19.792Z,1.28
2019-05-30T01:11:27.086Z,1.20
2019-05-30T01:16:29.479Z,1.40
2019-05-30T01:21:32.840Z,1.38
2019-05-30T01:26:35.759Z,1.49
2019-05-30T01:31:38.489Z,1.64
2019-05-30T01:36:41.171Z,1.24
2019-05-30T01:41:43.859Z,1.38
2019-05-30T01:46:48.714Z,1.37
2019-05-30T01:51:51.563Z,1.48
2019-05-30T01:56:55.219Z,1.60
2019-05-30T02:01:58.865Z,1.35
2019-05-30T02:07:01.025Z,1.52
2019-05-30T02:12:05.570Z,1.89
2019-05-30T02:17:07.833Z,1.51
2019-05-30T02:22:10.135Z,1.76
2019-05-30T02:27:13.352Z,1.19
2019-05-30T02:32:16.118Z,1.97
2019-05-30T02:37:19.445Z,1.73
2019-05-30T02:42:22.829Z,1.70
2019-05-30T02:47:27.847Z,1.57
2019-05-30T02:52:30.392Z,1.82
2019-05-30T02:57:39.509Z,1.86
2019-05-30T03:02:40.761Z,1.61
2019-05-30T03:07:42.307Z,1.56
2019-05-30T03:12:44.984Z,1.72
2019-05-30T03:17:47.356Z,1.66
2019-05-30T03:22:50.617Z,2.34
2019-05-30T03:27:53.530Z,1.71
2019-05-30T03:33:07.155Z,1.62
2019-05-30T03:37:59.232Z,1.85
2019-05-30T03:43:03.847Z,1.51
2019-05-30T03:48:06.575Z,2.13
2019-05-30T03:53:09.431Z,1.97
2019-05-30T03:58:12.189Z,2.08
2019-05-30T04:03:15.550Z,1.88
2019-05-30T04:08:16.239Z,1.84
2019-05-30T04:13:19.278Z,2.10
2019-05-30T04:18:21.020Z,2.06
2019-05-30T04:23:24.030Z,2.02
2019-05-30T04:28:26.450Z,1.97
2019-05-30T04:33:32.444Z,1.72
2019-05-30T04:38:31.228Z,1.83
2019-05-30T04:43:34.249Z,1.73
2019-05-30T04:48:35.361Z,2.01
2019-05-30T04:53:37.725Z,1.94
2019-05-30T04:58:42.515Z,2.64
2019-05-30T05:03:45.994Z,2.93
2019-05-30T05:08:46.013Z,2.32
2019-05-30T05:13:48.353Z,2.56
2019-05-30T05:18:51.021Z,2.60
2019-05-30T05:23:53.344Z,3.08
2019-05-30T05:28:56.687Z,2.65
2019-05-30T05:33:59.595Z,2.80
2019-05-30T05:39:03.003Z,3.27
2019-05-30T05:44:05.563Z,3.33
2019-05-30T05:49:08.322Z,3.02
2019-05-30T05:54:10.697Z,2.54
2019-05-30T05:59:13.204Z,2.53
2019-05-30T06:04:17.049Z,2.53
2019-05-30T06:09:18.327Z,2.50
2019-05-30T06:14:21.927Z,2.41
2019-05-30T06:19:23.422Z,2.83
2019-05-30T06:24:26.189Z,2.64
2019-05-30T06:29:29.669Z,2.96
2019-05-30T06:34:39.254Z,3.22
2019-05-30T06:40:07.649Z,2.77
2019-05-30T06:44:40.739Z,2.44
2019-05-30T06:49:43.977Z,2.51
2019-05-30T06:54:47.652Z,2.49
2019-05-30T06:59:51.837Z,3.13
2019-05-30T07:04:55.742Z,2.47
2019-05-30T07:09:58.537Z,2.87
2019-05-30T07:15:01.702Z,2.96
2019-05-30T07:20:04.127Z,3.08
2019-05-30T07:25:09.436Z,2.64
2019-05-30T07:30:12.788Z,3.38
2019-05-30T07:35:15.505Z,3.56
2019-05-30T07:40:19.582Z,3.99
2019-05-30T07:45:21.193Z,3.68
2019-05-30T07:50:24.610Z,4.10
2019-05-30T07:55:27.310Z,3.69
2019-05-30T08:00:31.424Z,4.21
2019-05-30T08:05:32.978Z,3.76
2019-05-30T08:10:36.483Z,3.60
2019-05-30T08:15:43.795Z,3.56
2019-05-30T08:20:41.442Z,4.35
2019-05-30T08:25:44.964Z,4.47
2019-05-30T08:30:47.638Z,4.02
2019-05-30T08:35:52.000Z,4.07
2019-05-30T08:40:55.778Z,3.93
2019-05-30T08:45:58.842Z,4.90
2019-05-30T08:51:02.886Z,4.87
2019-05-30T08:56:05.549Z,4.92
2019-05-30T09:01:08.101Z,4.80
2019-05-30T09:06:11.325Z,4.25
2019-05-30T09:11:14.767Z,4.49
2019-05-30T09:16:18.473Z,4.22
2019-05-30T09:21:21.696Z,3.80
2019-05-30T09:26:24.739Z,4.25
2019-05-30T09:31:27.479Z,3.63
2019-05-30T09:36:29.969Z,4.05
2019-05-30T09:41:35.033Z,3.66
2019-05-30T09:46:38.074Z,3.84
2019-05-30T09:51:41.938Z,4.21
2019-05-30T09:56:43.296Z,3.84
2019-05-30T10:01:44.368Z,3.51
2019-05-30T10:06:47.122Z,4.05
2019-05-30T10:11:51.323Z,4.50
2019-05-30T10:16:55.031Z,3.34
2019-05-30T10:21:54.912Z,3.60
2019-05-30T10:26:58.213Z,3.05
2019-05-30T10:32:00.912Z,2.52
2019-05-30T10:37:03.623Z,3.13
2019-05-30T10:42:06.581Z,3.01
2019-05-30T10:47:08.965Z,2.91
2019-05-30T10:52:11.958Z,3.41
2019-05-30T10:57:15.494Z,3.41
2019-05-30T11:02:18.598Z,4.09
2019-05-30T11:07:21.580Z,3.83
2019-05-30T11:12:24.734Z,3.98
2019-05-30T11:17:27.340Z,4.21
2019-05-30T11:22:30.047Z,4.69
2019-05-30T11:27:32.383Z,4.87
2019-05-30T11:32:34.965Z,4.81
2019-05-30T11:37:37.897Z,5.32
2019-05-30T11:42:42.004Z,6.00
2019-05-30T11:47:44.987Z,5.57
2019-05-30T11:52:49.735Z,5.86
2019-05-30T11:57:52.092Z,4.76
2019-05-30T12:02:54.408Z,4.84
2019-05-30T12:07:58.829Z,5.00
2019-05-30T12:12:59.573Z,4.00
2019-05-30T12:18:04.146Z,3.62
2019-05-30T12:23:06.716Z,3.13
2019-05-30T12:28:09.763Z,2.78
2019-05-30T12:33:13.273Z,2.62
2019-05-30T12:38:17.253Z,2.16
2019-05-30T12:43:20.611Z,2.12
2019-05-30T12:48:23.855Z,2.19
2019-05-30T12:53:27.188Z,2.10
2019-05-30T12:58:31.190Z,1.70
2019-05-30T13:03:33.981Z,1.51
2019-05-30T13:08:37.317Z,1.59
2019-05-30T13:13:39.811Z,1.86
2019-05-30T13:18:42.602Z,1.46
2019-05-30T13:23:45.976Z,1.90
2019-05-30T13:28:51.261Z,2.52
2019-05-30T13:33:54.867Z,2.76
2019-05-30T13:38:59.052Z,3.64
2019-05-30T13:44:03.269Z,2.98
2019-05-30T13:49:04.639Z,2.80
2019-05-30T13:54:05.591Z,3.19
2019-05-30T13:59:10.093Z,2.91
2019-05-30T14:04:11.359Z,2.85
2019-05-30T14:09:14.395Z,2.34
2019-05-30T14:14:19.718Z,2.19
2019-05-30T14:19:19.796Z,2.47
2019-05-30T14:24:22.695Z,2.91
2019-05-30T14:29:28.170Z,2.20
2019-05-30T14:34:29.863Z,2.32
2019-05-30T14:39:32.583Z,2.15
2019-05-30T14:44:35.911Z,2.33
2019-05-30T14:49:38.332Z,2.10
2019-05-30T14:54:40.956Z,2.79
2019-05-30T14:59:43.642Z,2.16
2019-05-30T15:04:47.210Z,2.00
2019-05-30T15:09:49.909Z,1.67
2019-05-30T15:14:53.166Z,1.86
2019-05-30T15:19:56.846Z,2.46
2019-05-30T15:24:59.324Z,2.08
2019-05-30T15:30:01.935Z,2.20
2019-05-30T15:35:04.894Z,2.62
2019-05-30T15:40:08.757Z,2.25
2019-05-30T15:45:10.062Z,2.72
2019-05-30T15:50:11.787Z,2.31
2019-05-30T15:55:11.422Z,2.68
2019-05-30T16:00:16.070Z,2.47
2019-05-30T16:05:18.666Z,2.65
2019-05-30T16:10:20.968Z,2.81
2019-05-30T16:15:26.415Z,3.13
2019-05-30T16:20:28.542Z,3.26
2019-05-30T16:25:30.563Z,3.05
2019-05-30T16:30:32.405Z,2.80
2019-05-30T16:35:36.559Z,3.10
2019-05-30T16:40:39.736Z,3.01
2019-05-30T16:45:43.507Z,2.56
2019-05-30T16:50:46.996Z,2.90
2019-05-30T16:55:50.020Z,2.39
2019-05-30T17:00:54.030Z,1.75
2019-05-30T17:05:57.573Z,1.62
2019-05-30T17:10:59.960Z,1.31
2019-05-30T17:16:04.205Z,1.50
2019-05-30T17:21:07.553Z,1.17
2019-05-30T17:26:11.629Z,1.50
2019-05-30T17:31:15.128Z,1.44
2019-05-30T17:36:19.979Z,1.24
2019-05-30T17:41:20.799Z,1.41
2019-05-30T17:46:23.524Z,1.21
2019-05-30T17:51:26.094Z,1.38
2019-05-30T17:56:30.126Z,1.19
2019-05-30T18:01:31.071Z,1.20
2019-05-30T18:06:33.561Z,1.12
2019-05-30T18:11:36.785Z,1.22
2019-05-30T18:16:39.417Z,1.41
2019-05-30T18:21:42.224Z,1.25
2019-05-30T18:26:44.784Z,1.34
2019-05-30T18:31:48.276Z,1.39
2019-05-30T18:36:50.707Z,1.35
2019-05-30T18:41:53.535Z,1.22
2019-05-30T18:46:56.554Z,1.04
2019-05-30T18:51:59.933Z,1.16
2019-05-30T18:57:02.793Z,1.05
2019-05-30T19:02:08.283Z,1.08
2019-05-30T19:07:11.214Z,0.99
2019-05-30T19:12:13.729Z,0.79
2019-05-30T19:17:16.252Z,0.87
2019-05-30T19:22:19.200Z,0.72
2019-05-30T19:27:21.833Z,0.62
2019-05-30T19:32:26.369Z,0.67
2019-05-30T19:37:27.211Z,0.70
2019-05-30T19:42:31.398Z,0.73
2019-05-30T19:47:34.550Z,0.74
2019-05-30T19:52:36.792Z,0.70
2019-05-30T19:57:39.749Z,0.65
2019-05-30T20:02:40.609Z,0.80
2019-05-30T20:07:43.748Z,0.78
2019-05-30T20:12:46.481Z,0.79
2019-05-30T20:17:49.066Z,0.95
2019-05-30T20:22:51.539Z,0.80
2019-05-30T20:27:54.333Z,0.75
2019-05-30T20:32:55.298Z,0.65
2019-05-30T20:37:59.663Z,0.60
2019-05-30T20:43:00.079Z,0.77
2019-05-30T20:48:02.575Z,0.74
2019-05-30T20:53:05.002Z,0.95
2019-05-30T20:58:07.690Z,1.00
2019-05-30T21:03:10.412Z,0.88
2019-05-30T21:08:12.893Z,0.92
2019-05-30T21:13:15.362Z,0.87
2019-05-30T21:19:37.773Z,0.81
2019-05-30T21:24:40.640Z,0.82
2019-05-30T21:29:43.125Z,0.80
2019-05-30T21:34:44.689Z,0.80
2019-05-30T21:39:46.204Z,0.77
2019-05-30T21:44:51.404Z,0.81
2019-05-30T21:49:50.778Z,0.76
2019-05-30T21:54:53.124Z,0.93
2019-05-30T21:59:55.583Z,0.84
2019-05-30T22:04:57.962Z,0.81
2019-05-30T22:10:00.491Z,0.85
2019-05-30T22:15:02.872Z,0.73
2019-05-30T22:20:05.801Z,0.92
2019-05-30T22:25:08.202Z,0.91
2019-05-30T22:30:11.527Z,0.87
2019-05-30T22:35:13.941Z,0.78
2019-05-30T22:40:16.565Z,0.82
2019-05-30T22:45:19.028Z,0.90
2019-05-30T22:50:21.697Z,0.99
2019-05-30T22:55:24.365Z,0.83
2019-05-30T23:00:26.805Z,0.96
2019-05-30T23:05:29.261Z,0.98
2019-05-30T23:10:31.804Z,0.92
2019-05-30T23:15:34.135Z,1.06
2019-05-30T23:20:37.518Z,0.82
2019-05-30T23:25:39.874Z,0.92
2019-05-30T23:30:42.386Z,0.72
2019-05-30T23:35:45.152Z,0.82
2019-05-30T23:40:49.326Z,0.93
2019-05-30T23:45:51.713Z,0.92
2019-05-30T23:50:53.791Z,0.90
2019-05-30T23:55:54.698Z,0.72
